sensor_id;sensor_type;location;lat;lon;timestamp;P1;durP1;ratioP1;P2;durP2;ratioP2
34453;SDS011;60061;52.080;5.312;2022-11-18T00:01:22;6.8;;;3.5;;
34453;SDS011;60061;52.080;5.312;2022-11-18T00:02:59;5.11;;;3.4;;
34453;SDS011;60061;52.080;5.312;2022-11-18T00:04:35;7.8;;;3.1;;
34453;SDS011;60061;52.080;5.312;2022-11-18T00:07:50;9.6;;;3.1;;
34453;SDS011;60061;52.080;5.312;2022-11-18T00:09:26;9.6;;;3.1;;
34453;SDS011;60061;52.080;5.312;2022-11-18T00:11:04;6.6;;;2.7;;
34453;SDS011;60061;52.080;5.312;2022-11-18T00:16:07;5.8;;;3.1;;
34453;SDS011;60061;52.080;5.312;2022-11-18T00:17:47;7.9;;;3.2;;
34453;SDS011;60061;52.080;5.312;2022-11-18T00:19:24;7.7;;;3.3;;
34453;SDS011;60061;52.080;5.312;2022-11-18T00:22:41;7.2;;;3.2;;
34453;SDS011;60061;52.080;5.312;2022-11-18T00:24:18;7.4;;;3.7;;
34453;SDS011;60061;52.080;5.312;2022-11-18T00:25:58;7.3;;;3.4;;
34453;SDS011;60061;52.080;5.312;2022-11-18T00:27:37;8.31;;;3.5;;
34453;SDS011;60061;52.080;5.312;2022-11-18T00:30:50;9.5;;;3.4;;
34453;SDS011;60061;52.080;5.312;2022-11-18T00:32:26;7.5;;;3.3;;
34453;SDS011;60061;52.080;5.312;2022-11-18T00:34:03;7.9;;;3.6;;
34453;SDS011;60061;52.080;5.312;2022-11-18T00:37:16;10.5;;;3.5;;
34453;SDS011;60061;52.080;5.312;2022-11-18T00:38:52;7.6;;;3.6;;
34453;SDS011;60061;52.080;5.312;2022-11-18T00:40:28;8.31;;;3.3;;
34453;SDS011;60061;52.080;5.312;2022-11-18T00:43:08;5.5;;;3.5;;
34453;SDS011;60061;52.080;5.312;2022-11-18T00:44:45;8.0;;;3.5;;
34453;SDS011;60061;52.080;5.312;2022-11-18T00:46:21;7.1;;;3.6;;
34453;SDS011;60061;52.080;5.312;2022-11-18T00:49:33;6.7;;;3.4;;
34453;SDS011;60061;52.080;5.312;2022-11-18T00:51:10;5.5;;;3.2;;
34453;SDS011;60061;52.080;5.312;2022-11-18T00:52:53;8.71;;;3.5;;
34453;SDS011;60061;52.080;5.312;2022-11-18T00:56:06;7.0;;;3.3;;
34453;SDS011;60061;52.080;5.312;2022-11-18T00:57:43;7.7;;;3.8;;
34453;SDS011;60061;52.080;5.312;2022-11-18T00:59:19;6.5;;;3.4;;
34453;SDS011;60061;52.080;5.312;2022-11-18T01:00:55;6.9;;;3.6;;
34453;SDS011;60061;52.080;5.312;2022-11-18T01:04:09;8.9;;;3.7;;
34453;SDS011;60061;52.080;5.312;2022-11-18T01:05:45;8.81;;;3.7;;
34453;SDS011;60061;52.080;5.312;2022-11-18T01:07:22;9.31;;;4.0;;
34453;SDS011;60061;52.080;5.312;2022-11-18T01:10:35;8.71;;;3.7;;
34453;SDS011;60061;52.080;5.312;2022-11-18T01:13:31;9.21;;;4.0;;
34453;SDS011;60061;52.080;5.312;2022-11-18T01:15:07;8.2;;;3.9;;
34453;SDS011;60061;52.080;5.312;2022-11-18T01:16:52;8.9;;;4.2;;
34453;SDS011;60061;52.080;5.312;2022-11-18T01:18:29;9.1;;;4.1;;
34453;SDS011;60061;52.080;5.312;2022-11-18T01:20:07;8.0;;;3.9;;
34453;SDS011;60061;52.080;5.312;2022-11-18T01:23:20;10.4;;;3.8;;
34453;SDS011;60061;52.080;5.312;2022-11-18T01:24:56;9.4;;;3.7;;
34453;SDS011;60061;52.080;5.312;2022-11-18T01:26:32;6.4;;;3.8;;
34453;SDS011;60061;52.080;5.312;2022-11-18T01:28:08;8.6;;;4.1;;
34453;SDS011;60061;52.080;5.312;2022-11-18T01:31:22;9.71;;;4.1;;
34453;SDS011;60061;52.080;5.312;2022-11-18T01:32:59;8.31;;;4.2;;
34453;SDS011;60061;52.080;5.312;2022-11-18T01:34:36;9.31;;;4.1;;
34453;SDS011;60061;52.080;5.312;2022-11-18T01:37:52;8.9;;;3.8;;
34453;SDS011;60061;52.080;5.312;2022-11-18T01:39:30;10.8;;;4.2;;
34453;SDS011;60061;52.080;5.312;2022-11-18T01:41:06;7.5;;;3.7;;
34453;SDS011;60061;52.080;5.312;2022-11-18T01:42:43;9.4;;;4.1;;
34453;SDS011;60061;52.080;5.312;2022-11-18T01:47:06;9.9;;;4.2;;
34453;SDS011;60061;52.080;5.312;2022-11-18T01:50:21;12.7;;;4.61;;
34453;SDS011;60061;52.080;5.312;2022-11-18T01:52:00;9.4;;;4.41;;
34453;SDS011;60061;52.080;5.312;2022-11-18T01:53:37;11.8;;;4.5;;
34453;SDS011;60061;52.080;5.312;2022-11-18T01:55:17;11.3;;;4.1;;
34453;SDS011;60061;52.080;5.312;2022-11-18T01:58:41;9.0;;;4.0;;
34453;SDS011;60061;52.080;5.312;2022-11-18T02:00:21;8.31;;;4.3;;
34453;SDS011;60061;52.080;5.312;2022-11-18T02:01:58;8.6;;;4.2;;
34453;SDS011;60061;52.080;5.312;2022-11-18T02:03:38;8.81;;;4.3;;
34453;SDS011;60061;52.080;5.312;2022-11-18T02:06:52;10.7;;;4.5;;
34453;SDS011;60061;52.080;5.312;2022-11-18T02:08:29;9.1;;;4.1;;
34453;SDS011;60061;52.080;5.312;2022-11-18T02:10:19;9.6;;;4.3;;
34453;SDS011;60061;52.080;5.312;2022-11-18T02:13:33;9.31;;;4.5;;
34453;SDS011;60061;52.080;5.312;2022-11-18T02:15:09;12.7;;;4.3;;
34453;SDS011;60061;52.080;5.312;2022-11-18T02:16:51;9.71;;;4.2;;
34453;SDS011;60061;52.080;5.312;2022-11-18T02:18:40;8.4;;;4.2;;
34453;SDS011;60061;52.080;5.312;2022-11-18T02:20:29;8.9;;;4.3;;
34453;SDS011;60061;52.080;5.312;2022-11-18T02:24:11;7.5;;;4.1;;
34453;SDS011;60061;52.080;5.312;2022-11-18T02:27:48;10.9;;;4.5;;
34453;SDS011;60061;52.080;5.312;2022-11-18T02:30:01;11.9;;;4.61;;
34453;SDS011;60061;52.080;5.312;2022-11-18T02:31:41;9.1;;;4.1;;
34453;SDS011;60061;52.080;5.312;2022-11-18T02:33:27;7.5;;;4.0;;
34453;SDS011;60061;52.080;5.312;2022-11-18T02:35:12;9.9;;;4.41;;
34453;SDS011;60061;52.080;5.312;2022-11-18T02:38:41;9.9;;;4.91;;
34453;SDS011;60061;52.080;5.312;2022-11-18T02:40:21;10.3;;;4.3;;
34453;SDS011;60061;52.080;5.312;2022-11-18T02:42:01;10.7;;;4.8;;
34453;SDS011;60061;52.080;5.312;2022-11-18T02:43:44;7.8;;;4.3;;
34453;SDS011;60061;52.080;5.312;2022-11-18T02:48:45;11.6;;;4.7;;
34453;SDS011;60061;52.080;5.312;2022-11-18T02:50:25;8.71;;;4.2;;
34453;SDS011;60061;52.080;5.312;2022-11-18T02:52:05;9.21;;;4.41;;
34453;SDS011;60061;52.080;5.312;2022-11-18T02:55:24;8.2;;;4.3;;
34453;SDS011;60061;52.080;5.312;2022-11-18T02:57:05;9.9;;;4.3;;
34453;SDS011;60061;52.080;5.312;2022-11-18T02:58:43;10.5;;;4.61;;
34453;SDS011;60061;52.080;5.312;2022-11-18T03:00:19;10.7;;;4.7;;
34453;SDS011;60061;52.080;5.312;2022-11-18T03:03:33;10.3;;;4.61;;
34453;SDS011;60061;52.080;5.312;2022-11-18T03:05:12;12.0;;;4.8;;
34453;SDS011;60061;52.080;5.312;2022-11-18T03:06:55;9.31;;;4.8;;
34453;SDS011;60061;52.080;5.312;2022-11-18T03:08:43;10.5;;;4.61;;
34453;SDS011;60061;52.080;5.312;2022-11-18T03:12:13;7.5;;;4.2;;
34453;SDS011;60061;52.080;5.312;2022-11-18T03:14:07;9.1;;;4.7;;
34453;SDS011;60061;52.080;5.312;2022-11-18T03:15:53;9.81;;;4.91;;
34453;SDS011;60061;52.080;5.312;2022-11-18T03:17:39;7.2;;;4.3;;
34453;SDS011;60061;52.080;5.312;2022-11-18T03:19:28;9.71;;;4.5;;
34453;SDS011;60061;52.080;5.312;2022-11-18T03:21:15;12.0;;;4.5;;
34453;SDS011;60061;52.080;5.312;2022-11-18T03:24:44;6.8;;;4.41;;
34453;SDS011;60061;52.080;5.312;2022-11-18T03:26:30;6.8;;;4.1;;
34453;SDS011;60061;52.080;5.312;2022-11-18T03:28:11;8.4;;;3.9;;
34453;SDS011;60061;52.080;5.312;2022-11-18T03:29:55;9.81;;;4.1;;
34453;SDS011;60061;52.080;5.312;2022-11-18T03:31:37;9.5;;;4.61;;
34453;SDS011;60061;52.080;5.312;2022-11-18T03:35:00;12.4;;;4.61;;
34453;SDS011;60061;52.080;5.312;2022-11-18T03:36:42;10.0;;;4.7;;
34453;SDS011;60061;52.080;5.312;2022-11-18T03:38:24;8.5;;;4.5;;
34453;SDS011;60061;52.080;5.312;2022-11-18T03:40:08;9.6;;;4.41;;
34453;SDS011;60061;52.080;5.312;2022-11-18T03:43:37;11.3;;;5.11;;
34453;SDS011;60061;52.080;5.312;2022-11-18T03:45:20;12.0;;;4.91;;
34453;SDS011;60061;52.080;5.312;2022-11-18T03:47:03;9.1;;;4.5;;
34453;SDS011;60061;52.080;5.312;2022-11-18T03:48:46;10.8;;;4.1;;
34453;SDS011;60061;52.080;5.312;2022-11-18T03:50:28;11.0;;;4.91;;
34453;SDS011;60061;52.080;5.312;2022-11-18T03:53:51;10.6;;;4.7;;
34453;SDS011;60061;52.080;5.312;2022-11-18T03:55:34;9.21;;;4.3;;
34453;SDS011;60061;52.080;5.312;2022-11-18T03:57:18;9.6;;;4.5;;
34453;SDS011;60061;52.080;5.312;2022-11-18T03:59:02;8.6;;;4.91;;
34453;SDS011;60061;52.080;5.312;2022-11-18T04:00:50;9.4;;;4.8;;
34453;SDS011;60061;52.080;5.312;2022-11-18T04:04:09;11.0;;;4.91;;
34453;SDS011;60061;52.080;5.312;2022-11-18T04:05:47;8.81;;;4.8;;
34453;SDS011;60061;52.080;5.312;2022-11-18T04:07:32;7.1;;;4.3;;
34453;SDS011;60061;52.080;5.312;2022-11-18T04:09:14;9.0;;;4.7;;
34453;SDS011;60061;52.080;5.312;2022-11-18T04:12:38;10.5;;;4.91;;
34453;SDS011;60061;52.080;5.312;2022-11-18T04:14:21;8.71;;;4.41;;
34453;SDS011;60061;52.080;5.312;2022-11-18T04:15:57;10.6;;;4.91;;
34453;SDS011;60061;52.080;5.312;2022-11-18T04:17:34;12.9;;;4.7;;
34453;SDS011;60061;52.080;5.312;2022-11-18T04:20:47;10.1;;;4.91;;
34453;SDS011;60061;52.080;5.312;2022-11-18T04:22:23;9.1;;;4.7;;
34453;SDS011;60061;52.080;5.312;2022-11-18T04:23:59;8.4;;;4.41;;
34453;SDS011;60061;52.080;5.312;2022-11-18T04:27:11;10.5;;;4.61;;
34453;SDS011;60061;52.080;5.312;2022-11-18T04:28:48;7.1;;;4.61;;
34453;SDS011;60061;52.080;5.312;2022-11-18T04:30:25;9.1;;;4.41;;
34453;SDS011;60061;52.080;5.312;2022-11-18T04:33:40;9.31;;;4.61;;
34453;SDS011;60061;52.080;5.312;2022-11-18T04:35:16;8.5;;;4.3;;
34453;SDS011;60061;52.080;5.312;2022-11-18T04:36:52;7.6;;;4.0;;
34453;SDS011;60061;52.080;5.312;2022-11-18T04:38:29;9.6;;;4.2;;
34453;SDS011;60061;52.080;5.312;2022-11-18T04:41:59;8.6;;;4.0;;
34453;SDS011;60061;52.080;5.312;2022-11-18T04:43:35;7.6;;;4.61;;
34453;SDS011;60061;52.080;5.312;2022-11-18T04:48:25;12.2;;;4.5;;
34453;SDS011;60061;52.080;5.312;2022-11-18T04:50:01;8.1;;;4.2;;
34453;SDS011;60061;52.080;5.312;2022-11-18T04:51:38;10.3;;;4.3;;
34453;SDS011;60061;52.080;5.312;2022-11-18T04:53:15;10.8;;;4.61;;
34453;SDS011;60061;52.080;5.312;2022-11-18T04:56:28;8.5;;;4.61;;
34453;SDS011;60061;52.080;5.312;2022-11-18T04:58:05;11.8;;;4.91;;
34453;SDS011;60061;52.080;5.312;2022-11-18T04:59:41;8.1;;;4.2;;
34453;SDS011;60061;52.080;5.312;2022-11-18T05:02:53;9.21;;;4.61;;
34453;SDS011;60061;52.080;5.312;2022-11-18T05:04:30;7.1;;;4.3;;
34453;SDS011;60061;52.080;5.312;2022-11-18T05:06:08;7.3;;;4.3;;
34453;SDS011;60061;52.080;5.312;2022-11-18T05:07:44;10.5;;;4.7;;
34453;SDS011;60061;52.080;5.312;2022-11-18T05:12:47;9.71;;;4.7;;
34453;SDS011;60061;52.080;5.312;2022-11-18T05:14:24;9.0;;;4.7;;
34453;SDS011;60061;52.080;5.312;2022-11-18T05:17:37;12.5;;;4.8;;
34453;SDS011;60061;52.080;5.312;2022-11-18T05:19:13;6.9;;;4.3;;
34453;SDS011;60061;52.080;5.312;2022-11-18T05:20:49;9.4;;;4.5;;
34453;SDS011;60061;52.080;5.312;2022-11-18T05:22:25;8.1;;;4.61;;
34453;SDS011;60061;52.080;5.312;2022-11-18T05:25:40;8.2;;;4.5;;
34453;SDS011;60061;52.080;5.312;2022-11-18T05:27:17;10.4;;;4.7;;
34453;SDS011;60061;52.080;5.312;2022-11-18T05:28:53;11.5;;;4.7;;
34453;SDS011;60061;52.080;5.312;2022-11-18T05:32:05;12.4;;;5.11;;
34453;SDS011;60061;52.080;5.312;2022-11-18T05:33:42;12.8;;;5.11;;
34453;SDS011;60061;52.080;5.312;2022-11-18T05:35:19;9.4;;;4.8;;
34453;SDS011;60061;52.080;5.312;2022-11-18T05:38:31;9.6;;;4.8;;
34453;SDS011;60061;52.080;5.312;2022-11-18T05:40:09;8.31;;;4.5;;
34453;SDS011;60061;52.080;5.312;2022-11-18T05:43:10;7.8;;;4.91;;
34453;SDS011;60061;52.080;5.312;2022-11-18T05:44:47;9.6;;;4.7;;
34453;SDS011;60061;52.080;5.312;2022-11-18T05:46:24;9.6;;;4.5;;
34453;SDS011;60061;52.080;5.312;2022-11-18T05:48:03;12.1;;;4.7;;
34453;SDS011;60061;52.080;5.312;2022-11-18T05:49:41;8.4;;;4.91;;
34453;SDS011;60061;52.080;5.312;2022-11-18T05:52:54;9.71;;;4.3;;
34453;SDS011;60061;52.080;5.312;2022-11-18T05:54:30;9.21;;;4.41;;
34453;SDS011;60061;52.080;5.312;2022-11-18T05:56:10;8.5;;;4.41;;
34453;SDS011;60061;52.080;5.312;2022-11-18T05:59:30;11.1;;;4.2;;
34453;SDS011;60061;52.080;5.312;2022-11-18T06:01:06;11.3;;;4.3;;
34453;SDS011;60061;52.080;5.312;2022-11-18T06:02:45;9.9;;;4.3;;
34453;SDS011;60061;52.080;5.312;2022-11-18T06:04:26;8.5;;;4.3;;
34453;SDS011;60061;52.080;5.312;2022-11-18T06:07:46;6.2;;;4.0;;
34453;SDS011;60061;52.080;5.312;2022-11-18T06:09:23;8.31;;;4.0;;
34453;SDS011;60061;52.080;5.312;2022-11-18T06:11:06;6.9;;;3.8;;
34453;SDS011;60061;52.080;5.312;2022-11-18T06:12:48;10.0;;;4.2;;
34453;SDS011;60061;52.080;5.312;2022-11-18T06:16:12;9.21;;;3.8;;
34453;SDS011;60061;52.080;5.312;2022-11-18T06:17:49;8.71;;;4.41;;
34453;SDS011;60061;52.080;5.312;2022-11-18T06:19:30;10.5;;;4.2;;
34453;SDS011;60061;52.080;5.312;2022-11-18T06:21:07;8.1;;;4.2;;
34453;SDS011;60061;52.080;5.312;2022-11-18T06:24:21;8.1;;;4.2;;
34453;SDS011;60061;52.080;5.312;2022-11-18T06:25:58;9.31;;;4.2;;
34453;SDS011;60061;52.080;5.312;2022-11-18T06:27:34;10.8;;;4.41;;
34453;SDS011;60061;52.080;5.312;2022-11-18T06:30:51;8.2;;;4.41;;
34453;SDS011;60061;52.080;5.312;2022-11-18T06:32:30;8.81;;;4.2;;
34453;SDS011;60061;52.080;5.312;2022-11-18T06:34:06;10.21;;;4.61;;
34453;SDS011;60061;52.080;5.312;2022-11-18T06:35:42;9.21;;;4.41;;
34453;SDS011;60061;52.080;5.312;2022-11-18T06:38:57;9.31;;;4.3;;
34453;SDS011;60061;52.080;5.312;2022-11-18T06:40:38;12.0;;;5.0;;
34453;SDS011;60061;52.080;5.312;2022-11-18T06:43:37;10.6;;;4.61;;
34453;SDS011;60061;52.080;5.312;2022-11-18T06:45:14;10.0;;;4.3;;
34453;SDS011;60061;52.080;5.312;2022-11-18T06:46:57;9.71;;;4.8;;
34453;SDS011;60061;52.080;5.312;2022-11-18T06:48:33;10.21;;;4.3;;
34453;SDS011;60061;52.080;5.312;2022-11-18T06:51:46;11.5;;;4.61;;
34453;SDS011;60061;52.080;5.312;2022-11-18T06:53:22;10.1;;;4.3;;
34453;SDS011;60061;52.080;5.312;2022-11-18T06:54:58;8.5;;;4.41;;
34453;SDS011;60061;52.080;5.312;2022-11-18T06:56:35;8.9;;;4.7;;
34453;SDS011;60061;52.080;5.312;2022-11-18T06:59:48;10.4;;;5.2;;
34453;SDS011;60061;52.080;5.312;2022-11-18T07:01:25;8.0;;;4.8;;
34453;SDS011;60061;52.080;5.312;2022-11-18T07:03:02;10.3;;;5.11;;
34453;SDS011;60061;52.080;5.312;2022-11-18T07:06:17;9.31;;;4.61;;
34453;SDS011;60061;52.080;5.312;2022-11-18T07:07:55;7.7;;;4.1;;
34453;SDS011;60061;52.080;5.312;2022-11-18T07:09:33;11.4;;;4.61;;
34453;SDS011;60061;52.080;5.312;2022-11-18T07:12:49;11.7;;;6.3;;
34453;SDS011;60061;52.080;5.312;2022-11-18T07:14:26;9.4;;;4.7;;
34453;SDS011;60061;52.080;5.312;2022-11-18T07:16:04;11.7;;;4.61;;
34453;SDS011;60061;52.080;5.312;2022-11-18T07:17:42;9.21;;;4.61;;
34453;SDS011;60061;52.080;5.312;2022-11-18T07:20:55;12.5;;;4.7;;
34453;SDS011;60061;52.080;5.312;2022-11-18T07:22:31;9.6;;;5.0;;
34453;SDS011;60061;52.080;5.312;2022-11-18T07:24:07;10.3;;;4.8;;
34453;SDS011;60061;52.080;5.312;2022-11-18T07:27:22;9.5;;;4.5;;
34453;SDS011;60061;52.080;5.312;2022-11-18T07:28:59;9.9;;;4.7;;
34453;SDS011;60061;52.080;5.312;2022-11-18T07:30:35;10.0;;;4.8;;
34453;SDS011;60061;52.080;5.312;2022-11-18T07:32:11;10.4;;;5.2;;
34453;SDS011;60061;52.080;5.312;2022-11-18T07:35:24;17.41;;;8.4;;
34453;SDS011;60061;52.080;5.312;2022-11-18T07:37:01;11.6;;;6.1;;
34453;SDS011;60061;52.080;5.312;2022-11-18T07:38:37;25.8;;;12.1;;
34453;SDS011;60061;52.080;5.312;2022-11-18T07:41:51;24.0;;;11.4;;
34453;SDS011;60061;52.080;5.312;2022-11-18T07:43:27;19.0;;;9.1;;
34453;SDS011;60061;52.080;5.312;2022-11-18T07:45:04;15.7;;;6.3;;
34453;SDS011;60061;52.080;5.312;2022-11-18T07:48:18;9.4;;;5.2;;
34453;SDS011;60061;52.080;5.312;2022-11-18T07:49:54;13.7;;;5.2;;
34453;SDS011;60061;52.080;5.312;2022-11-18T07:51:31;11.7;;;5.11;;
34453;SDS011;60061;52.080;5.312;2022-11-18T07:53:10;10.8;;;5.11;;
34453;SDS011;60061;52.080;5.312;2022-11-18T07:56:22;13.0;;;5.8;;
34453;SDS011;60061;52.080;5.312;2022-11-18T07:57:59;12.5;;;4.8;;
34453;SDS011;60061;52.080;5.312;2022-11-18T07:59:35;10.21;;;5.2;;
34453;SDS011;60061;52.080;5.312;2022-11-18T08:02:51;12.6;;;5.7;;
34453;SDS011;60061;52.080;5.312;2022-11-18T08:06:04;11.3;;;4.91;;
34453;SDS011;60061;52.080;5.312;2022-11-18T08:07:42;11.3;;;4.91;;
34453;SDS011;60061;52.080;5.312;2022-11-18T08:10:56;11.3;;;5.11;;
34453;SDS011;60061;52.080;5.312;2022-11-18T08:12:33;11.3;;;5.3;;
34453;SDS011;60061;52.080;5.312;2022-11-18T08:14:09;9.9;;;4.61;;
34453;SDS011;60061;52.080;5.312;2022-11-18T08:17:22;8.9;;;5.2;;
34453;SDS011;60061;52.080;5.312;2022-11-18T08:18:58;10.1;;;5.11;;
34453;SDS011;60061;52.080;5.312;2022-11-18T08:20:35;9.5;;;5.0;;
34453;SDS011;60061;52.080;5.312;2022-11-18T08:23:48;9.6;;;4.91;;
34453;SDS011;60061;52.080;5.312;2022-11-18T08:25:26;10.21;;;5.3;;
34453;SDS011;60061;52.080;5.312;2022-11-18T08:27:03;9.21;;;4.7;;
34453;SDS011;60061;52.080;5.312;2022-11-18T08:28:39;10.6;;;5.11;;
34453;SDS011;60061;52.080;5.312;2022-11-18T08:31:53;10.8;;;5.9;;
34453;SDS011;60061;52.080;5.312;2022-11-18T08:33:30;12.3;;;6.2;;
34453;SDS011;60061;52.080;5.312;2022-11-18T08:35:06;11.9;;;5.4;;
34453;SDS011;60061;52.080;5.312;2022-11-18T08:38:20;15.7;;;5.6;;
34453;SDS011;60061;52.080;5.312;2022-11-18T08:39:56;12.0;;;5.6;;
34453;SDS011;60061;52.080;5.312;2022-11-18T08:41:33;10.5;;;5.4;;
34453;SDS011;60061;52.080;5.312;2022-11-18T08:44:49;12.1;;;5.2;;
34453;SDS011;60061;52.080;5.312;2022-11-18T08:46:25;9.81;;;4.91;;
34453;SDS011;60061;52.080;5.312;2022-11-18T08:48:02;12.0;;;5.3;;
34453;SDS011;60061;52.080;5.312;2022-11-18T08:49:38;10.9;;;5.2;;
34453;SDS011;60061;52.080;5.312;2022-11-18T08:52:51;11.1;;;5.11;;
34453;SDS011;60061;52.080;5.312;2022-11-18T08:54:27;7.4;;;4.8;;
34453;SDS011;60061;52.080;5.312;2022-11-18T08:56:03;9.31;;;5.0;;
34453;SDS011;60061;52.080;5.312;2022-11-18T08:59:17;7.3;;;4.61;;
34453;SDS011;60061;52.080;5.312;2022-11-18T09:00:53;9.4;;;5.0;;
34453;SDS011;60061;52.080;5.312;2022-11-18T09:02:30;7.2;;;4.5;;
34453;SDS011;60061;52.080;5.312;2022-11-18T09:05:42;9.9;;;5.11;;
34453;SDS011;60061;52.080;5.312;2022-11-18T09:07:20;11.3;;;5.0;;
34453;SDS011;60061;52.080;5.312;2022-11-18T09:08:57;9.21;;;4.7;;
34453;SDS011;60061;52.080;5.312;2022-11-18T09:10:33;10.0;;;5.0;;
34453;SDS011;60061;52.080;5.312;2022-11-18T09:13:51;10.0;;;5.3;;
34453;SDS011;60061;52.080;5.312;2022-11-18T09:15:29;10.1;;;4.8;;
34453;SDS011;60061;52.080;5.312;2022-11-18T09:17:05;9.31;;;5.4;;
34453;SDS011;60061;52.080;5.312;2022-11-18T09:20:18;15.3;;;6.7;;
34453;SDS011;60061;52.080;5.312;2022-11-18T09:21:54;9.71;;;5.2;;
34453;SDS011;60061;52.080;5.312;2022-11-18T09:23:31;10.1;;;5.2;;
34453;SDS011;60061;52.080;5.312;2022-11-18T09:25:09;10.7;;;5.0;;
34453;SDS011;60061;52.080;5.312;2022-11-18T09:28:21;11.5;;;5.3;;
34453;SDS011;60061;52.080;5.312;2022-11-18T09:29:57;11.4;;;5.2;;
34453;SDS011;60061;52.080;5.312;2022-11-18T09:31:33;12.2;;;5.4;;
34453;SDS011;60061;52.080;5.312;2022-11-18T09:34:45;11.2;;;5.5;;
34453;SDS011;60061;52.080;5.312;2022-11-18T09:36:22;11.3;;;5.7;;
34453;SDS011;60061;52.080;5.312;2022-11-18T09:38:01;10.7;;;6.0;;
34453;SDS011;60061;52.080;5.312;2022-11-18T09:41:18;11.5;;;5.5;;
34453;SDS011;60061;52.080;5.312;2022-11-18T09:43:11;10.1;;;5.4;;
34453;SDS011;60061;52.080;5.312;2022-11-18T09:45:00;10.21;;;5.5;;
34453;SDS011;60061;52.080;5.312;2022-11-18T09:46:49;13.4;;;5.3;;
34453;SDS011;60061;52.080;5.312;2022-11-18T09:49:41;8.0;;;5.4;;
34453;SDS011;60061;52.080;5.312;2022-11-18T09:51:19;11.6;;;4.7;;
34453;SDS011;60061;52.080;5.312;2022-11-18T09:53:02;9.31;;;5.3;;
34453;SDS011;60061;52.080;5.312;2022-11-18T09:54:48;8.81;;;4.8;;
34453;SDS011;60061;52.080;5.312;2022-11-18T09:58:02;8.81;;;4.8;;
34453;SDS011;60061;52.080;5.312;2022-11-18T09:59:40;14.1;;;5.5;;
34453;SDS011;60061;52.080;5.312;2022-11-18T10:01:19;14.2;;;5.4;;
34453;SDS011;60061;52.080;5.312;2022-11-18T10:02:57;8.6;;;5.2;;
34453;SDS011;60061;52.080;5.312;2022-11-18T10:06:15;13.5;;;5.6;;
34453;SDS011;60061;52.080;5.312;2022-11-18T10:08:01;11.9;;;5.8;;
34453;SDS011;60061;52.080;5.312;2022-11-18T10:09:50;9.5;;;5.4;;
34453;SDS011;60061;52.080;5.312;2022-11-18T10:11:33;9.71;;;5.2;;
34453;SDS011;60061;52.080;5.312;2022-11-18T10:16:57;10.4;;;5.3;;
34453;SDS011;60061;52.080;5.312;2022-11-18T10:18:44;13.0;;;5.5;;
34453;SDS011;60061;52.080;5.312;2022-11-18T10:20:35;11.5;;;5.4;;
34453;SDS011;60061;52.080;5.312;2022-11-18T10:22:24;13.1;;;5.2;;
34453;SDS011;60061;52.080;5.312;2022-11-18T10:24:07;15.4;;;4.91;;
34453;SDS011;60061;52.080;5.312;2022-11-18T10:25:51;9.21;;;5.4;;
34453;SDS011;60061;52.080;5.312;2022-11-18T10:29:12;10.7;;;5.11;;
34453;SDS011;60061;52.080;5.312;2022-11-18T10:30:49;11.7;;;5.4;;
34453;SDS011;60061;52.080;5.312;2022-11-18T10:32:26;11.2;;;5.3;;
34453;SDS011;60061;52.080;5.312;2022-11-18T10:35:39;10.21;;;5.2;;
34453;SDS011;60061;52.080;5.312;2022-11-18T10:37:24;7.8;;;5.0;;
34453;SDS011;60061;52.080;5.312;2022-11-18T10:39:05;11.1;;;5.3;;
34453;SDS011;60061;52.080;5.312;2022-11-18T10:40:44;12.0;;;5.9;;
34453;SDS011;60061;52.080;5.312;2022-11-18T10:42:33;12.1;;;5.3;;
34453;SDS011;60061;52.080;5.312;2022-11-18T10:46:16;9.71;;;5.2;;
34453;SDS011;60061;52.080;5.312;2022-11-18T10:47:59;10.7;;;4.91;;
34453;SDS011;60061;52.080;5.312;2022-11-18T10:49:42;12.4;;;5.7;;
34453;SDS011;60061;52.080;5.312;2022-11-18T10:51:20;12.9;;;5.3;;
34453;SDS011;60061;52.080;5.312;2022-11-18T10:52:58;14.3;;;5.4;;
34453;SDS011;60061;52.080;5.312;2022-11-18T10:56:15;11.4;;;5.4;;
34453;SDS011;60061;52.080;5.312;2022-11-18T10:57:53;9.1;;;5.11;;
34453;SDS011;60061;52.080;5.312;2022-11-18T10:59:32;9.6;;;5.2;;
34453;SDS011;60061;52.080;5.312;2022-11-18T11:02:56;11.2;;;5.5;;
34453;SDS011;60061;52.080;5.312;2022-11-18T11:04:33;12.0;;;5.6;;
34453;SDS011;60061;52.080;5.312;2022-11-18T11:06:19;13.9;;;5.5;;
34453;SDS011;60061;52.080;5.312;2022-11-18T11:08:17;12.0;;;5.4;;
34453;SDS011;60061;52.080;5.312;2022-11-18T11:09:59;12.2;;;5.3;;
34453;SDS011;60061;52.080;5.312;2022-11-18T11:11:54;12.2;;;5.4;;
34453;SDS011;60061;52.080;5.312;2022-11-18T11:15:20;11.6;;;5.11;;
34453;SDS011;60061;52.080;5.312;2022-11-18T11:17:10;10.1;;;5.11;;
34453;SDS011;60061;52.080;5.312;2022-11-18T11:18:52;9.6;;;5.11;;
34453;SDS011;60061;52.080;5.312;2022-11-18T11:20:32;14.2;;;5.4;;
34453;SDS011;60061;52.080;5.312;2022-11-18T11:23:48;9.1;;;5.5;;
34453;SDS011;60061;52.080;5.312;2022-11-18T11:25:25;10.4;;;5.3;;
34453;SDS011;60061;52.080;5.312;2022-11-18T11:27:44;8.71;;;4.91;;
34453;SDS011;60061;52.080;5.312;2022-11-18T11:29:33;17.5;;;7.3;;
34453;SDS011;60061;52.080;5.312;2022-11-18T11:31:38;10.5;;;5.8;;
34453;SDS011;60061;52.080;5.312;2022-11-18T11:33:29;12.6;;;5.9;;
34453;SDS011;60061;52.080;5.312;2022-11-18T11:35:14;11.8;;;5.5;;
34453;SDS011;60061;52.080;5.312;2022-11-18T11:36:57;10.8;;;5.9;;
34453;SDS011;60061;52.080;5.312;2022-11-18T11:40:31;10.6;;;5.9;;
34453;SDS011;60061;52.080;5.312;2022-11-18T11:42:17;15.1;;;6.6;;
34453;SDS011;60061;52.080;5.312;2022-11-18T11:44:11;12.9;;;6.0;;
34453;SDS011;60061;52.080;5.312;2022-11-18T11:46:16;11.1;;;5.9;;
34453;SDS011;60061;52.080;5.312;2022-11-18T11:48:06;12.4;;;6.1;;
34453;SDS011;60061;52.080;5.312;2022-11-18T11:50:26;15.8;;;6.4;;
34453;SDS011;60061;52.080;5.312;2022-11-18T11:52:09;10.4;;;5.8;;
34453;SDS011;60061;52.080;5.312;2022-11-18T11:53:57;10.8;;;5.5;;
34453;SDS011;60061;52.080;5.312;2022-11-18T11:55:50;12.6;;;5.5;;
34453;SDS011;60061;52.080;5.312;2022-11-18T11:59:36;24.3;;;11.2;;
34453;SDS011;60061;52.080;5.312;2022-11-18T12:01:21;13.5;;;7.8;;
34453;SDS011;60061;52.080;5.312;2022-11-18T12:03:09;14.7;;;7.3;;
34453;SDS011;60061;52.080;5.312;2022-11-18T12:05:06;25.4;;;13.8;;
34453;SDS011;60061;52.080;5.312;2022-11-18T12:06:52;17.0;;;8.71;;
34453;SDS011;60061;52.080;5.312;2022-11-18T12:08:31;16.7;;;9.21;;
34453;SDS011;60061;52.080;5.312;2022-11-18T12:12:04;15.0;;;8.4;;
34453;SDS011;60061;52.080;5.312;2022-11-18T12:13:52;12.2;;;6.2;;
34453;SDS011;60061;52.080;5.312;2022-11-18T12:15:39;13.2;;;7.4;;
34453;SDS011;60061;52.080;5.312;2022-11-18T12:17:26;12.6;;;6.6;;
34453;SDS011;60061;52.080;5.312;2022-11-18T12:19:10;13.1;;;6.9;;
34453;SDS011;60061;52.080;5.312;2022-11-18T12:20:49;18.2;;;8.1;;
34453;SDS011;60061;52.080;5.312;2022-11-18T12:24:44;17.41;;;8.81;;
34453;SDS011;60061;52.080;5.312;2022-11-18T12:26:32;13.7;;;8.4;;
34453;SDS011;60061;52.080;5.312;2022-11-18T12:28:09;18.2;;;9.0;;
34453;SDS011;60061;52.080;5.312;2022-11-18T12:29:52;18.61;;;9.0;;
34453;SDS011;60061;52.080;5.312;2022-11-18T12:31:33;14.4;;;7.7;;
34453;SDS011;60061;52.080;5.312;2022-11-18T12:34:55;15.0;;;7.9;;
34453;SDS011;60061;52.080;5.312;2022-11-18T12:36:35;12.8;;;7.5;;
34453;SDS011;60061;52.080;5.312;2022-11-18T12:38:26;13.4;;;7.1;;
34453;SDS011;60061;52.080;5.312;2022-11-18T12:40:08;16.61;;;8.2;;
34453;SDS011;60061;52.080;5.312;2022-11-18T12:45:47;14.0;;;7.6;;
34453;SDS011;60061;52.080;5.312;2022-11-18T12:47:55;21.0;;;11.2;;
34453;SDS011;60061;52.080;5.312;2022-11-18T12:50:07;17.61;;;8.81;;
34453;SDS011;60061;52.080;5.312;2022-11-18T12:51:46;34.9;;;16.2;;
34453;SDS011;60061;52.080;5.312;2022-11-18T12:53:28;14.8;;;8.6;;
34453;SDS011;60061;52.080;5.312;2022-11-18T12:55:12;16.2;;;8.1;;
34453;SDS011;60061;52.080;5.312;2022-11-18T12:56:53;14.8;;;7.9;;
34453;SDS011;60061;52.080;5.312;2022-11-18T12:58:30;13.9;;;8.2;;
34453;SDS011;60061;52.080;5.312;2022-11-18T13:02:15;15.1;;;8.4;;
34453;SDS011;60061;52.080;5.312;2022-11-18T13:04:04;18.5;;;11.4;;
34453;SDS011;60061;52.080;5.312;2022-11-18T13:05:43;16.0;;;9.21;;
34453;SDS011;60061;52.080;5.312;2022-11-18T13:08:23;14.2;;;8.6;;